Time;durP1;ratioP1;P1;durP2;ratioP2;P2;SDS_P1;SDS_P2;PMS_P1;PMS_P2;Temp;Humidity;BMP_temperature;BMP_pressure;BME280_temperature;BME280_humidity;BME280_pressure;Samples;Min_cycle;Max_cycle;Signal;HPM_P1;HPM_P2
2021/12/16 00:31:54;;;;;;;90.10;50.70;;;;;;;4.56;100.00;100348.56;4487718;77;21007;-88
2021/12/16 00:37:52;;;;;;;94.32;51.13;;;;;;;4.59;100.00;100347.41;4464240;77;21113;-87
2021/12/16 00:44:05;;;;;;;100.97;53.87;;;;;;;4.62;100.00;100353.58;4497314;77;21052;-88
2021/12/16 00:50:18;;;;;;;102.78;52.05;;;;;;;4.63;100.00;100345.71;4491350;78;21045;-88
2021/12/16 00:56:13;;;;;;;100.33;52.98;;;;;;;4.65;100.00;100342.13;4457266;77;21056;-85
2021/12/16 01:02:54;;;;;;;93.45;48.55;;;;;;;4.64;100.00;100335.10;4470366;78;21024;-87
2021/12/16 01:34:22;;;;;;;93.30;49.10;;;;;;;4.62;100.00;100334.59;4461599;78;21026;-87
2021/12/16 01:58:50;;;;;;;92.62;48.48;;;;;;;4.60;100.00;100306.19;4581656;76;21020;-87
2021/12/16 02:05:12;;;;;;;101.47;50.52;;;;;;;4.61;100.00;100296.92;4582236;76;21025;-91
2021/12/16 02:36:44;;;;;;;95.45;49.35;;;;;;;4.68;100.00;100278.34;4579616;76;21553;-89
2021/12/16 02:42:25;;;;;;;92.95;48.45;;;;;;;4.70;100.00;100278.28;4556174;76;21018;-87
2021/12/16 02:48:30;;;;;;;98.95;49.93;;;;;;;4.72;100.00;100272.55;4576017;76;21014;-88
2021/12/16 02:54:33;;;;;;;91.53;50.40;;;;;;;4.74;100.00;100270.34;4581405;76;21073;-88
2021/12/16 03:00:40;;;;;;;93.92;50.45;;;;;;;4.74;100.00;100276.55;4581866;76;21076;-88
2021/12/16 03:06:51;;;;;;;90.60;49.30;;;;;;;4.74;100.00;100270.34;4582188;76;21002;-88
2021/12/16 03:13:07;;;;;;;103.80;52.45;;;;;;;4.74;100.00;100272.48;4582179;76;20965;-88
2021/12/16 03:19:17;;;;;;;92.25;52.83;;;;;;;4.74;100.00;100270.34;4585726;76;21017;-87
2021/12/16 03:37:25;;;;;;;94.03;50.25;;;;;;;4.78;100.00;100272.67;4581551;76;21090;-88
2021/12/16 03:43:28;;;;;;;94.40;49.73;;;;;;;4.77;100.00;100275.15;4574195;76;21601;-88
2021/12/16 03:49:30;;;;;;;97.90;51.00;;;;;;;4.78;100.00;100280.81;4573463;76;20986;-87
2021/12/16 03:55:33;;;;;;;80.92;43.73;;;;;;;4.77;100.00;100280.58;4582368;76;21055;-87
2021/12/16 04:01:37;;;;;;;98.55;49.45;;;;;;;4.78;100.00;100288.95;4575737;76;21051;-88
2021/12/16 04:07:41;;;;;;;94.40;50.70;;;;;;;4.79;100.00;100290.58;4498610;78;21085;-89
2021/12/16 04:13:58;;;;;;;88.22;47.43;;;;;;;4.80;100.00;100292.98;4496217;78;21022;-90
2021/12/16 04:20:15;;;;;;;99.20;48.10;;;;;;;4.81;100.00;100305.43;4469485;78;34382;-89
2021/12/16 04:26:17;;;;;;;95.85;51.60;;;;;;;4.82;100.00;100296.75;4285697;81;21081;-88
2021/12/16 04:32:19;;;;;;;102.97;50.75;;;;;;;4.82;100.00;100304.89;4285617;82;21073;-87
2021/12/16 04:38:21;;;;;;;100.53;49.23;;;;;;;4.83;100.00;100303.77;4283636;81;21536;-91
2021/12/16 04:44:25;;;;;;;96.63;51.23;;;;;;;4.83;100.00;100307.30;4280265;81;21120;-87
2021/12/16 04:50:27;;;;;;;102.27;49.33;;;;;;;4.82;100.00;100304.31;4327127;81;21088;-88
2021/12/16 04:56:30;;;;;;;104.03;46.55;;;;;;;4.82;100.00;100305.67;4302264;80;21526;-88
2021/12/16 05:02:34;;;;;;;103.10;45.88;;;;;;;4.79;100.00;100316.34;4290807;81;21097;-87
2021/12/16 05:08:42;;;;;;;113.85;51.55;;;;;;;4.81;100.00;100318.18;4293399;81;21099;-89
2021/12/16 05:14:47;;;;;;;101.80;48.95;;;;;;;4.79;100.00;100313.64;4289524;81;21042;-87
2021/12/16 05:20:49;;;;;;;106.10;46.95;;;;;;;4.81;100.00;100308.69;4290848;82;21094;-86
2021/12/16 05:26:59;;;;;;;100.27;43.73;;;;;;;4.82;100.00;100315.73;4264973;81;22320;-91
2021/12/16 05:33:01;;;;;;;102.70;42.67;;;;;;;4.81;100.00;100320.35;4196992;84;21085;-87
2021/12/16 05:39:05;;;;;;;94.60;40.12;;;;;;;4.81;100.00;100319.53;4264139;82;22070;-87
2021/12/16 05:45:10;;;;;;;93.25;37.93;;;;;;;4.81;100.00;100333.10;4260309;82;21061;-88
2021/12/16 05:51:18;;;;;;;95.97;37.85;;;;;;;4.82;100.00;100334.73;4260402;82;21055;-89
2021/12/16 05:57:19;;;;;;;;;;;;;;;4.83;100.00;100337.14;4312706;81;21037;-87
2021/12/16 06:03:23;;;;;;;95.77;37.98;;;;;;;4.84;100.00;100341.44;4320945;80;20121;-92
2021/12/16 06:09:25;;;;;;;109.55;41.53;;;;;;;4.83;100.00;100334.42;4314262;81;21577;-87
2021/12/16 06:28:02;;;;;;;118.50;47.70;;;;;;;4.87;100.00;100346.02;4316348;81;21136;-87
2021/12/16 06:34:01;;;;;;;100.75;45.98;;;;;;;4.85;100.00;100347.11;4313398;81;21103;-89
2021/12/16 06:40:06;;;;;;;110.28;45.85;;;;;;;4.89;100.00;100346.53;4316902;81;21368;-88
2021/12/16 06:46:16;;;;;;;95.57;47.00;;;;;;;4.91;100.00;100346.45;4314668;80;21065;-87
2021/12/16 06:52:20;;;;;;;92.02;45.95;;;;;;;4.91;100.00;100351.08;4279758;82;21061;-88
2021/12/16 06:58:30;;;;;;;87.88;45.73;;;;;;;4.93;100.00;100348.33;4206177;83;21029;-88
2021/12/16 07:04:24;;;;;;;94.10;47.88;;;;;;;4.95;100.00;100348.02;4203888;83;21114;-87
2021/12/16 07:10:29;;;;;;;88.82;43.75;;;;;;;4.98;100.00;100359.04;4221441;83;21046;-87
2021/12/16 07:16:30;;;;;;;83.33;44.15;;;;;;;5.02;100.00;100347.03;4313698;81;21144;-86
2021/12/16 07:22:33;;;;;;;82.60;43.55;;;;;;;5.01;100.00;100340.81;4197994;83;21550;-89
2021/12/16 07:28:35;;;;;;;87.30;43.33;;;;;;;5.05;100.00;100341.80;4260447;82;21078;-87
2021/12/16 07:34:36;;;;;;;84.75;45.80;;;;;;;5.06;100.00;100343.97;4312631;81;21062;-87
2021/12/16 07:40:42;;;;;;;70.95;39.75;;;;;;;5.06;100.00;100331.18;4314367;81;21061;-90
2021/12/16 07:46:52;;;;;;;85.55;42.15;;;;;;;5.10;100.00;100328.66;4313460;81;21581;-88
2021/12/16 07:52:54;;;;;;;72.75;41.15;;;;;;;5.12;100.00;100334.02;4315918;81;21065;-88
2021/12/16 07:58:55;;;;;;;72.03;36.40;;;;;;;5.19;100.00;100328.17;4281213;82;21068;-87
2021/12/16 08:04:57;;;;;;;64.87;36.08;;;;;;;5.26;100.00;100332.64;4197168;83;21103;-86
2021/12/16 08:10:59;;;;;;;75.22;38.50;;;;;;;5.31;100.00;100326.52;4273883;82;21128;-87
2021/12/16 08:17:00;;;;;;;61.90;34.43;;;;;;;5.38;100.00;100332.34;4322260;81;21011;-87
2021/12/16 08:23:03;;;;;;;62.70;34.10;;;;;;;5.44;100.00;100330.28;4202689;83;21056;-87
2021/12/16 08:29:06;;;;;;;54.05;30.00;;;;;;;5.51;100.00;100331.45;4313184;81;21073;-86
2021/12/16 08:35:09;;;;;;;53.55;29.52;;;;;;;5.56;100.00;100342.20;4315922;81;21370;-85
2021/12/16 08:48:05;;;;;;;71.30;34.38;;;;;;;5.69;100.00;100351.39;4015693;86;21147;-85
2021/12/16 08:54:08;;;;;;;64.62;32.70;;;;;;;5.74;100.00;100345.83;4048470;86;21427;-85
2021/12/16 09:00:24;;;;;;;57.90;34.27;;;;;;;5.76;100.00;100337.61;4035554;86;22299;-85
2021/12/16 09:06:57;;;;;;;67.27;34.98;;;;;;;5.80;100.00;100338.61;4052047;88;21070;-86
2021/12/16 09:13:14;;;;;;;65.83;34.90;;;;;;;5.85;100.00;100339.88;4018702;87;21078;-85
2021/12/16 09:19:17;;;;;;;64.07;34.70;;;;;;;5.89;100.00;100334.59;4023116;86;21095;-86
2021/12/16 09:25:28;;;;;;;66.28;33.55;;;;;;;5.88;100.00;100328.92;4024388;87;21084;-86
2021/12/16 09:31:36;;;;;;;57.78;31.50;;;;;;;5.91;100.00;100323.67;4024315;88;21047;-85
2021/12/16 09:37:38;;;;;;;60.85;32.50;;;;;;;5.93;100.00;100320.09;4022806;88;21075;-86
2021/12/16 09:43:47;;;;;;;65.60;35.60;;;;;;;5.94;100.00;100333.11;4029874;86;21060;-85
2021/12/16 09:50:16;;;;;;;67.15;35.30;;;;;;;5.98;100.00;100333.52;4055471;86;21592;-85
2021/12/16 09:56:24;;;;;;;72.10;33.92;;;;;;;6.03;100.00;100323.07;4024418;87;21143;-88
2021/12/16 10:36:42;;;;;;;45.80;26.30;;;;;;;6.33;100.00;100278.73;4028218;86;21175;-86
2021/12/16 10:49:52;;;;;;;48.35;25.55;;;;;;;6.51;100.00;100268.70;4020492;86;21117;-86
2021/12/16 11:02:39;;;;;;;54.60;27.82;;;;;;;6.55;100.00;100266.94;4089685;86;21048;-86
2021/12/16 11:29:48;;;;;;;;;;;;;;;6.36;100.00;100269.39;4023273;86;21115;-87
2021/12/16 11:49:44;;;;;;;58.65;30.12;;;;;;;6.37;100.00;100260.09;4138454;83;21072;-85
2021/12/16 11:55:48;;;;;;;51.50;27.77;;;;;;;6.43;100.00;100255.88;4132511;85;21078;-86
2021/12/16 12:01:58;;;;;;;47.25;26.48;;;;;;;6.43;100.00;100253.97;4141741;85;21017;-86
2021/12/16 12:15:07;;;;;;;51.33;26.37;;;;;;;6.36;100.00;100259.87;4136503;85;20978;-87
2021/12/16 12:28:29;;;;;;;55.12;29.98;;;;;;;6.36;100.00;100263.95;4036419;86;21177;-86
2021/12/16 12:34:34;;;;;;;55.58;29.50;;;;;;;6.36;100.00;100261.23;3997544;87;22378;-90
2021/12/16 12:40:40;;;;;;;52.98;29.50;;;;;;;6.33;100.00;100259.69;3982705;87;21580;-88
2021/12/16 12:46:43;;;;;;;51.65;28.38;;;;;;;6.28;100.00;100253.03;4025989;85;21056;-88
2021/12/16 12:52:50;;;;;;;58.48;30.77;;;;;;;6.23;100.00;100257.28;4029558;86;21034;-88
2021/12/16 12:59:06;;;;;;;51.35;30.15;;;;;;;6.19;100.00;100259.02;3997226;87;21087;-88
2021/12/16 13:05:18;;;;;;;54.77;32.55;;;;;;;6.14;100.00;100262.69;4049355;86;21397;-87
2021/12/16 13:11:30;;;;;;;52.58;30.12;;;;;;;6.11;100.00;100259.78;3994652;87;21563;-88
2021/12/16 13:24:40;;;;;;;60.08;32.53;;;;;;;6.06;100.00;100254.52;4021337;86;21580;-90
2021/12/16 13:30:38;;;;;;;53.55;31.07;;;;;;;6.05;100.00;100240.66;4025774;85;21148;-87
2021/12/16 13:36:49;;;;;;;61.68;31.57;;;;;;;6.01;100.00;100251.36;4017456;86;21691;-89
2021/12/16 13:42:58;;;;;;;60.70;33.48;;;;;;;6.00;100.00;100266.07;4020341;86;21961;-88
2021/12/16 13:58:15;;;;;;;51.37;30.48;;;;;;;5.99;100.00;100269.91;4057485;86;21083;-87
2021/12/16 14:08:06;;;;;;;62.27;33.18;;;;;;;5.93;100.00;100267.64;4162755;83;21025;-88
2021/12/16 14:14:27;;;;;;;63.50;34.08;;;;;;;5.89;100.00;100274.26;4158447;83;21140;-87
2021/12/16 14:27:06;;;;;;;81.17;39.92;;;;;;;5.81;100.00;100249.75;4168221;83;21168;-87
2021/12/16 14:45:43;;;;;;;64.60;33.70;;;;;;;5.81;100.00;100265.47;4171574;83;21044;-87
2021/12/16 14:51:39;;;;;;;67.62;32.33;;;;;;;5.81;100.00;100267.41;4175504;83;21673;-88
2021/12/16 14:57:46;;;;;;;62.40;33.10;;;;;;;5.80;100.00;100269.31;4176766;83;21071;-87
2021/12/16 15:03:50;;;;;;;58.98;32.60;;;;;;;5.78;100.00;100276.19;4170142;83;21068;-88
2021/12/16 15:09:55;;;;;;;57.50;31.35;;;;;;;5.79;100.00;100281.86;4173533;83;21094;-88
2021/12/16 15:16:24;;;;;;;64.37;31.87;;;;;;;5.78;100.00;100289.20;4174585;85;21537;-89
2021/12/16 15:48:01;;;;;;;54.38;30.45;;;;;;;5.78;100.00;100284.34;4141434;84;21092;-89
2021/12/16 15:54:04;;;;;;;;;;;;;;;5.77;100.00;100295.75;4150989;84;21071;-88
2021/12/16 16:00:14;;;;;;;49.03;29.25;;;;;;;5.78;100.00;100290.55;4156252;84;20158;-88
2021/12/16 16:06:17;;;;;;;51.73;28.17;;;;;;;5.79;100.00;100290.01;4146736;84;21077;-89
2021/12/16 16:12:24;;;;;;;51.70;28.90;;;;;;;5.80;100.00;100306.55;4147726;84;21061;-88
2021/12/16 16:24:37;;;;;;;50.60;29.32;;;;;;;5.78;100.00;100317.73;4136682;84;21068;-88
2021/12/16 16:30:39;;;;;;;51.00;29.40;;;;;;;5.80;100.00;100333.17;4069375;86;21120;-88
2021/12/16 16:36:45;;;;;;;49.20;27.98;;;;;;;5.79;100.00;100345.16;4070781;85;21040;-88
2021/12/16 16:42:47;;;;;;;51.20;28.40;;;;;;;5.79;100.00;100360.11;4057459;86;21131;-88
2021/12/16 16:55:31;;;;;;;50.88;27.70;;;;;;;5.80;100.00;100356.81;4078119;86;21737;-87
2021/12/16 17:01:33;;;;;;;49.42;28.70;;;;;;;5.82;100.00;100351.91;4074640;86;21037;-87
2021/12/16 17:07:43;;;;;;;46.85;29.05;;;;;;;5.82;100.00;100357.34;4072871;86;21095;-87
2021/12/16 17:20:11;;;;;;;54.03;30.50;;;;;;;5.80;100.00;100360.34;4075304;85;21052;-88
2021/12/16 17:26:30;;;;;;;53.13;30.77;;;;;;;5.81;100.00;100363.30;4067586;85;21046;-86
2021/12/16 17:32:33;;;;;;;57.70;32.25;;;;;;;5.81;100.00;100352.43;4105280;84;21531;-88
2021/12/16 17:38:38;;;;;;;52.00;30.88;;;;;;;5.83;100.00;100338.56;4087811;84;21615;-87
2021/12/16 17:44:44;;;;;;;53.63;31.00;;;;;;;5.83;100.00;100365.73;4089205;85;21092;-88
2021/12/16 17:50:51;;;;;;;50.40;30.27;;;;;;;5.82;100.00;100358.70;4086419;85;21083;-87
2021/12/16 17:56:56;;;;;;;48.85;27.40;;;;;;;5.83;100.00;100367.09;4100807;85;21118;-87
2021/12/16 18:03:02;;;;;;;47.30;28.80;;;;;;;5.83;100.00;100373.89;4092247;85;21006;-87
2021/12/16 18:09:15;;;;;;;52.00;30.23;;;;;;;5.82;100.00;100389.41;4009642;87;21145;-88
2021/12/16 18:15:25;;;;;;;48.02;29.37;;;;;;;5.83;100.00;100384.21;4031411;87;21161;-87
2021/12/16 18:21:37;;;;;;;53.70;31.77;;;;;;;5.83;100.00;100406.50;4016506;87;21090;-87
2021/12/16 18:28:00;;;;;;;53.02;32.73;;;;;;;5.83;100.00;100399.70;4047887;85;21592;-87
2021/12/16 18:34:13;;;;;;;49.65;30.05;;;;;;;5.80;100.00;100411.16;4179152;83;21061;-86
2021/12/16 18:40:20;;;;;;;51.50;29.30;;;;;;;5.79;100.00;100426.69;4179492;83;21049;-88
2021/12/16 18:46:23;;;;;;;;;;;;;;;5.77;100.00;100432.98;4178019;82;21033;-88
2021/12/16 18:52:34;;;;;;;48.92;28.77;;;;;;;5.71;100.00;100406.23;4180970;83;20161;-88
2021/12/16 18:58:29;;;;;;;51.50;29.30;;;;;;;5.67;100.00;100418.84;4178022;83;21041;-89
2021/12/16 19:04:35;;;;;;;45.25;27.20;;;;;;;5.64;100.00;100426.22;4168015;83;21094;-88
2021/12/16 19:10:38;;;;;;;34.73;22.87;;;;;;;5.63;100.00;100429.52;4044654;83;10000292;-92
2021/12/16 19:16:41;;;;;;;30.92;19.87;;;;;;;5.62;100.00;100417.59;4173809;83;21042;-89
2021/12/16 19:22:43;;;;;;;36.70;20.05;;;;;;;5.63;100.00;100394.73;4154808;83;21128;-88
2021/12/16 19:28:45;;;;;;;26.95;18.48;;;;;;;5.56;100.00;100397.09;4169651;83;21111;-87
2021/12/16 19:34:52;;;;;;;27.20;16.97;;;;;;;5.38;100.00;100413.80;4166107;83;22344;-89
2021/12/16 19:40:57;;;;;;;;;;;;;;;5.22;100.00;100424.75;4172528;83;21056;-92
2021/12/16 19:46:58;;;;;;;22.62;14.07;;;;;;;5.17;100.00;100444.43;4159194;83;20179;-88
2021/12/16 19:53:02;;;;;;;22.02;13.28;;;;;;;5.18;100.00;100471.27;4171405;83;21156;-87
2021/12/16 19:59:06;;;;;;;24.82;14.15;;;;;;;5.19;100.00;100476.94;4160210;83;21065;-87
2021/12/16 20:05:09;;;;;;;26.75;14.45;;;;;;;5.20;100.00;100481.83;4175887;83;21052;-92
2021/12/16 20:11:16;;;;;;;25.05;14.98;;;;;;;5.18;100.00;100479.41;4168286;83;21068;-88
2021/12/16 20:17:24;;;;;;;19.17;12.00;;;;;;;5.17;100.00;100491.94;4170839;83;21083;-87
2021/12/16 20:23:25;;;;;;;20.85;12.50;;;;;;;5.15;100.00;100497.67;4147810;83;21084;-88
2021/12/16 20:29:35;;;;;;;22.30;12.03;;;;;;;5.14;100.00;100491.19;4162365;83;22554;-88
2021/12/16 20:35:54;;;;;;;20.45;10.90;;;;;;;5.10;100.00;100474.70;4154469;83;21057;-87
2021/12/16 20:42:04;;;;;;;18.98;10.80;;;;;;;5.05;100.00;100470.72;4159442;83;22097;-88
2021/12/16 20:48:06;;;;;;;17.73;10.60;;;;;;;5.02;100.00;100467.25;4160606;83;21041;-87
2021/12/16 20:54:13;;;;;;;19.23;10.93;;;;;;;5.00;100.00;100468.10;4159326;83;21037;-88
2021/12/16 21:00:20;;;;;;;19.92;10.20;;;;;;;4.98;100.00;100468.95;4164659;83;21073;-87
2021/12/16 21:06:24;;;;;;;21.42;11.53;;;;;;;4.94;100.00;100457.65;4168179;84;21139;-89
2021/12/16 21:12:26;;;;;;;16.52;9.83;;;;;;;4.93;100.00;100458.77;4154875;84;22053;-87
2021/12/16 21:18:28;;;;;;;17.92;10.80;;;;;;;4.90;100.00;100435.77;4159580;84;21059;-88
2021/12/16 21:24:30;;;;;;;19.73;11.18;;;;;;;4.88;100.00;100447.47;4157160;84;21060;-88
2021/12/16 21:30:34;;;;;;;21.82;10.15;;;;;;;4.86;100.00;100449.67;4165388;83;21374;-88
2021/12/16 21:36:37;;;;;;;17.77;8.78;;;;;;;4.83;100.00;100449.73;4144094;84;21124;-89
2021/12/16 21:42:40;;;;;;;16.40;7.85;;;;;;;4.80;100.00;100450.87;4149537;84;21367;-87
2021/12/16 21:48:43;;;;;;;16.67;7.97;;;;;;;4.77;100.00;100459.08;4154642;84;21053;-87
2021/12/16 21:54:45;;;;;;;18.55;10.40;;;;;;;4.74;100.00;100446.67;4148186;84;21560;-91
2021/12/16 22:00:49;;;;;;;18.30;10.53;;;;;;;4.71;100.00;100443.98;4158820;82;21128;-89
2021/12/16 22:06:51;;;;;;;27.77;13.55;;;;;;;4.70;100.00;100431.53;4136601;84;21143;-86
2021/12/16 22:12:54;;;;;;;22.20;10.08;;;;;;;4.69;100.00;100433.20;4156476;83;21057;-87
2021/12/16 22:18:59;;;;;;;23.55;11.20;;;;;;;4.67;100.00;100412.34;4149621;84;22424;-86
2021/12/16 22:24:59;;;;;;;24.52;13.38;;;;;;;4.63;100.00;100408.09;4156858;84;21070;-88
2021/12/16 22:31:03;;;;;;;25.23;13.40;;;;;;;4.62;100.00;100386.67;4173887;83;21056;-87
2021/12/16 22:37:10;;;;;;;29.32;13.10;;;;;;;4.60;100.00;100373.41;4176514;83;21388;-86
2021/12/16 22:43:20;;;;;;;24.63;11.97;;;;;;;4.59;100.00;100375.88;4173912;83;21046;-86
2021/12/16 22:49:22;;;;;;;29.02;11.85;;;;;;;4.57;100.00;100366.45;4173159;83;21095;-88
2021/12/16 22:55:24;;;;;;;24.20;11.38;;;;;;;4.56;100.00;100353.98;4169507;83;21040;-86
2021/12/16 23:01:26;;;;;;;26.95;12.15;;;;;;;4.55;100.00;100353.20;4168224;83;21060;-87
